sensor_id;sensor_type;location;lat;lon;timestamp;temperature;humidity
41904;DHT22;27586;51.124;4.182;2023-03-18T00:01:46;12.90;99.90
41904;DHT22;27586;51.124;4.182;2023-03-18T00:04:12;13.00;99.90
41904;DHT22;27586;51.124;4.182;2023-03-18T00:06:38;12.90;99.90
41904;DHT22;27586;51.124;4.182;2023-03-18T00:09:05;12.90;99.90
41904;DHT22;27586;51.124;4.182;2023-03-18T00:11:31;12.90;99.90
41904;DHT22;27586;51.124;4.182;2023-03-18T00:13:57;12.90;99.90
41904;DHT22;27586;51.124;4.182;2023-03-18T00:16:23;13.00;99.90
41904;DHT22;27586;51.124;4.182;2023-03-18T00:18:49;13.00;99.90
41904;DHT22;27586;51.124;4.182;2023-03-18T00:21:15;13.00;99.90
41904;DHT22;27586;51.124;4.182;2023-03-18T00:23:41;13.00;99.90
41904;DHT22;27586;51.124;4.182;2023-03-18T00:26:07;12.90;99.90
41904;DHT22;27586;51.124;4.182;2023-03-18T00:28:34;12.90;99.90
41904;DHT22;27586;51.124;4.182;2023-03-18T00:31:06;12.90;99.90
41904;DHT22;27586;51.124;4.182;2023-03-18T00:33:37;13.00;99.90
41904;DHT22;27586;51.124;4.182;2023-03-18T00:36:08;12.90;99.90
41904;DHT22;27586;51.124;4.182;2023-03-18T00:38:39;12.90;99.90
41904;DHT22;27586;51.124;4.182;2023-03-18T00:41:05;12.90;99.90
41904;DHT22;27586;51.124;4.182;2023-03-18T00:43:39;13.00;99.90
41904;DHT22;27586;51.124;4.182;2023-03-18T00:46:19;12.90;99.90
41904;DHT22;27586;51.124;4.182;2023-03-18T00:48:45;12.90;99.90
41904;DHT22;27586;51.124;4.182;2023-03-18T00:51:13;12.80;99.90
41904;DHT22;27586;51.124;4.182;2023-03-18T00:53:43;12.80;99.90
41904;DHT22;27586;51.124;4.182;2023-03-18T00:56:10;12.80;99.90
41904;DHT22;27586;51.124;4.182;2023-03-18T00:58:36;12.70;99.90
41904;DHT22;27586;51.124;4.182;2023-03-18T01:01:04;12.70;99.90
41904;DHT22;27586;51.124;4.182;2023-03-18T01:03:30;12.70;99.90
41904;DHT22;27586;51.124;4.182;2023-03-18T01:06:01;12.70;99.90
41904;DHT22;27586;51.124;4.182;2023-03-18T01:08:29;12.60;99.90
41904;DHT22;27586;51.124;4.182;2023-03-18T01:10:58;12.60;99.90
41904;DHT22;27586;51.124;4.182;2023-03-18T01:13:24;12.60;99.90
41904;DHT22;27586;51.124;4.182;2023-03-18T01:15:51;12.50;99.90
41904;DHT22;27586;51.124;4.182;2023-03-18T01:18:17;12.60;99.90
41904;DHT22;27586;51.124;4.182;2023-03-18T01:20:43;12.60;99.90
41904;DHT22;27586;51.124;4.182;2023-03-18T01:23:10;12.60;99.90
41904;DHT22;27586;51.124;4.182;2023-03-18T01:25:37;12.60;99.90
41904;DHT22;27586;51.124;4.182;2023-03-18T01:28:03;12.60;99.90
41904;DHT22;27586;51.124;4.182;2023-03-18T01:30:29;12.60;99.90
41904;DHT22;27586;51.124;4.182;2023-03-18T01:32:56;12.50;99.90
41904;DHT22;27586;51.124;4.182;2023-03-18T01:35:22;12.50;99.90
41904;DHT22;27586;51.124;4.182;2023-03-18T01:37:48;12.50;99.90
41904;DHT22;27586;51.124;4.182;2023-03-18T01:40:15;12.40;99.90
41904;DHT22;27586;51.124;4.182;2023-03-18T01:42:42;12.40;99.90
41904;DHT22;27586;51.124;4.182;2023-03-18T01:45:20;12.50;99.90
41904;DHT22;27586;51.124;4.182;2023-03-18T01:47:46;12.50;99.90
41904;DHT22;27586;51.124;4.182;2023-03-18T01:50:20;12.50;99.90
41904;DHT22;27586;51.124;4.182;2023-03-18T01:52:49;12.60;99.90
41904;DHT22;27586;51.124;4.182;2023-03-18T01:55:18;12.50;99.90
41904;DHT22;27586;51.124;4.182;2023-03-18T01:57:46;12.60;99.90
41904;DHT22;27586;51.124;4.182;2023-03-18T02:00:13;12.50;99.90
41904;DHT22;27586;51.124;4.182;2023-03-18T02:02:42;12.50;99.90
41904;DHT22;27586;51.124;4.182;2023-03-18T02:05:11;12.50;99.90
41904;DHT22;27586;51.124;4.182;2023-03-18T02:07:40;12.50;99.90
41904;DHT22;27586;51.124;4.182;2023-03-18T02:10:29;12.50;99.90
41904;DHT22;27586;51.124;4.182;2023-03-18T02:12:58;12.50;99.90
41904;DHT22;27586;51.124;4.182;2023-03-18T02:15:26;12.50;99.90
41904;DHT22;27586;51.124;4.182;2023-03-18T02:18:18;12.50;99.90
41904;DHT22;27586;51.124;4.182;2023-03-18T02:24:10;12.40;99.90
41904;DHT22;27586;51.124;4.182;2023-03-18T02:26:57;12.50;99.90
41904;DHT22;27586;51.124;4.182;2023-03-18T02:29:27;12.50;99.90
41904;DHT22;27586;51.124;4.182;2023-03-18T02:31:54;12.50;99.90
41904;DHT22;27586;51.124;4.182;2023-03-18T02:34:22;12.50;99.90
41904;DHT22;27586;51.124;4.182;2023-03-18T02:36:49;12.50;99.90
41904;DHT22;27586;51.124;4.182;2023-03-18T02:39:15;12.40;99.90
41904;DHT22;27586;51.124;4.182;2023-03-18T02:41:42;12.50;99.90
41904;DHT22;27586;51.124;4.182;2023-03-18T02:44:10;12.40;99.90
41904;DHT22;27586;51.124;4.182;2023-03-18T02:49:15;12.40;99.90
41904;DHT22;27586;51.124;4.182;2023-03-18T02:51:42;12.30;99.90
41904;DHT22;27586;51.124;4.182;2023-03-18T02:54:11;12.30;99.90
41904;DHT22;27586;51.124;4.182;2023-03-18T02:56:38;12.20;99.90
41904;DHT22;27586;51.124;4.182;2023-03-18T02:59:04;12.10;99.90
41904;DHT22;27586;51.124;4.182;2023-03-18T03:01:31;12.10;99.90
41904;DHT22;27586;51.124;4.182;2023-03-18T03:03:58;12.20;99.90
41904;DHT22;27586;51.124;4.182;2023-03-18T03:06:24;12.20;99.90
41904;DHT22;27586;51.124;4.182;2023-03-18T03:08:51;12.20;99.90
41904;DHT22;27586;51.124;4.182;2023-03-18T03:11:17;12.20;99.90
41904;DHT22;27586;51.124;4.182;2023-03-18T03:13:43;12.20;99.90
41904;DHT22;27586;51.124;4.182;2023-03-18T03:16:14;12.20;99.90
41904;DHT22;27586;51.124;4.182;2023-03-18T03:18:41;12.10;99.90
41904;DHT22;27586;51.124;4.182;2023-03-18T03:21:07;12.10;99.90
41904;DHT22;27586;51.124;4.182;2023-03-18T03:23:33;12.10;99.90
41904;DHT22;27586;51.124;4.182;2023-03-18T03:26:00;12.10;99.90
41904;DHT22;27586;51.124;4.182;2023-03-18T03:28:26;12.00;99.90
41904;DHT22;27586;51.124;4.182;2023-03-18T03:30:53;11.90;99.90
41904;DHT22;27586;51.124;4.182;2023-03-18T03:33:20;11.90;99.90
41904;DHT22;27586;51.124;4.182;2023-03-18T03:35:46;11.80;99.90
41904;DHT22;27586;51.124;4.182;2023-03-18T03:38:11;11.80;99.90
41904;DHT22;27586;51.124;4.182;2023-03-18T03:40:37;11.60;99.90
41904;DHT22;27586;51.124;4.182;2023-03-18T03:43:04;11.60;99.90
41904;DHT22;27586;51.124;4.182;2023-03-18T03:45:30;11.50;99.90
41904;DHT22;27586;51.124;4.182;2023-03-18T03:47:56;11.50;99.90
41904;DHT22;27586;51.124;4.182;2023-03-18T03:50:22;11.50;99.90
41904;DHT22;27586;51.124;4.182;2023-03-18T03:52:48;11.40;99.90
41904;DHT22;27586;51.124;4.182;2023-03-18T03:55:16;11.40;99.90
41904;DHT22;27586;51.124;4.182;2023-03-18T03:57:43;11.40;99.90
41904;DHT22;27586;51.124;4.182;2023-03-18T04:00:11;11.30;99.90
41904;DHT22;27586;51.124;4.182;2023-03-18T04:02:41;11.30;99.90
41904;DHT22;27586;51.124;4.182;2023-03-18T04:05:09;11.30;99.90
41904;DHT22;27586;51.124;4.182;2023-03-18T04:07:36;11.30;99.90
41904;DHT22;27586;51.124;4.182;2023-03-18T04:10:02;11.20;99.90
41904;DHT22;27586;51.124;4.182;2023-03-18T04:12:28;11.10;99.90
41904;DHT22;27586;51.124;4.182;2023-03-18T04:14:54;11.10;99.90
41904;DHT22;27586;51.124;4.182;2023-03-18T04:17:19;11.10;99.90
41904;DHT22;27586;51.124;4.182;2023-03-18T04:19:45;11.10;99.90
41904;DHT22;27586;51.124;4.182;2023-03-18T04:22:11;11.10;99.90
41904;DHT22;27586;51.124;4.182;2023-03-18T04:24:37;11.10;99.90
41904;DHT22;27586;51.124;4.182;2023-03-18T04:27:03;11.00;99.90
41904;DHT22;27586;51.124;4.182;2023-03-18T04:29:29;10.90;99.90
41904;DHT22;27586;51.124;4.182;2023-03-18T04:31:55;10.90;99.90
41904;DHT22;27586;51.124;4.182;2023-03-18T04:34:21;10.80;99.90
41904;DHT22;27586;51.124;4.182;2023-03-18T04:36:47;10.90;99.90
41904;DHT22;27586;51.124;4.182;2023-03-18T04:39:13;10.90;99.90
41904;DHT22;27586;51.124;4.182;2023-03-18T04:41:38;10.80;99.90
41904;DHT22;27586;51.124;4.182;2023-03-18T04:44:05;10.80;99.90
41904;DHT22;27586;51.124;4.182;2023-03-18T04:46:30;10.80;99.90
41904;DHT22;27586;51.124;4.182;2023-03-18T04:48:57;10.80;99.90
41904;DHT22;27586;51.124;4.182;2023-03-18T04:51:24;10.70;99.90
41904;DHT22;27586;51.124;4.182;2023-03-18T04:53:50;10.60;99.90
41904;DHT22;27586;51.124;4.182;2023-03-18T04:56:16;10.50;99.90
41904;DHT22;27586;51.124;4.182;2023-03-18T04:58:42;10.50;99.90
41904;DHT22;27586;51.124;4.182;2023-03-18T05:01:08;10.50;99.90
41904;DHT22;27586;51.124;4.182;2023-03-18T05:03:35;10.50;99.90
41904;DHT22;27586;51.124;4.182;2023-03-18T05:06:01;10.50;99.90
41904;DHT22;27586;51.124;4.182;2023-03-18T05:08:27;10.40;99.90
41904;DHT22;27586;51.124;4.182;2023-03-18T05:10:52;10.30;99.90
41904;DHT22;27586;51.124;4.182;2023-03-18T05:13:18;10.30;99.90
41904;DHT22;27586;51.124;4.182;2023-03-18T05:15:44;10.30;99.90
41904;DHT22;27586;51.124;4.182;2023-03-18T05:18:10;10.30;99.90
41904;DHT22;27586;51.124;4.182;2023-03-18T05:20:37;10.30;99.90
41904;DHT22;27586;51.124;4.182;2023-03-18T05:23:02;10.30;99.90
41904;DHT22;27586;51.124;4.182;2023-03-18T05:25:28;10.30;99.90
41904;DHT22;27586;51.124;4.182;2023-03-18T05:27:54;10.30;99.90
41904;DHT22;27586;51.124;4.182;2023-03-18T05:30:22;10.20;99.90
41904;DHT22;27586;51.124;4.182;2023-03-18T05:32:48;10.20;99.90
41904;DHT22;27586;51.124;4.182;2023-03-18T05:35:14;10.20;99.90
41904;DHT22;27586;51.124;4.182;2023-03-18T05:37:39;10.20;99.90
41904;DHT22;27586;51.124;4.182;2023-03-18T05:40:06;10.20;99.90
41904;DHT22;27586;51.124;4.182;2023-03-18T05:42:36;10.20;99.90
41904;DHT22;27586;51.124;4.182;2023-03-18T05:45:03;10.20;99.90
41904;DHT22;27586;51.124;4.182;2023-03-18T05:47:30;10.20;99.90
41904;DHT22;27586;51.124;4.182;2023-03-18T05:49:56;10.10;99.90
41904;DHT22;27586;51.124;4.182;2023-03-18T05:52:22;10.10;99.90
41904;DHT22;27586;51.124;4.182;2023-03-18T05:54:47;10.10;99.90
41904;DHT22;27586;51.124;4.182;2023-03-18T05:57:14;10.10;99.90
41904;DHT22;27586;51.124;4.182;2023-03-18T05:59:40;10.10;99.90
41904;DHT22;27586;51.124;4.182;2023-03-18T06:02:06;10.10;99.90
41904;DHT22;27586;51.124;4.182;2023-03-18T06:04:31;10.10;99.90
41904;DHT22;27586;51.124;4.182;2023-03-18T06:06:57;10.10;99.90
41904;DHT22;27586;51.124;4.182;2023-03-18T06:09:23;10.10;99.90
41904;DHT22;27586;51.124;4.182;2023-03-18T06:11:50;10.10;99.90
41904;DHT22;27586;51.124;4.182;2023-03-18T06:14:16;10.10;99.90
41904;DHT22;27586;51.124;4.182;2023-03-18T06:16:43;10.10;99.90
41904;DHT22;27586;51.124;4.182;2023-03-18T06:19:09;10.10;99.90
41904;DHT22;27586;51.124;4.182;2023-03-18T06:21:37;10.00;99.90
41904;DHT22;27586;51.124;4.182;2023-03-18T06:24:03;10.00;99.90
41904;DHT22;27586;51.124;4.182;2023-03-18T06:26:29;10.00;99.90
41904;DHT22;27586;51.124;4.182;2023-03-18T06:28:55;10.10;99.90
41904;DHT22;27586;51.124;4.182;2023-03-18T06:31:20;10.20;99.90
41904;DHT22;27586;51.124;4.182;2023-03-18T06:33:46;10.30;99.90
41904;DHT22;27586;51.124;4.182;2023-03-18T06:36:12;10.40;99.90
41904;DHT22;27586;51.124;4.182;2023-03-18T06:38:41;10.40;99.90
41904;DHT22;27586;51.124;4.182;2023-03-18T06:41:07;10.70;99.90
41904;DHT22;27586;51.124;4.182;2023-03-18T06:43:33;10.70;99.90
41904;DHT22;27586;51.124;4.182;2023-03-18T06:45:59;10.90;99.90
41904;DHT22;27586;51.124;4.182;2023-03-18T06:48:25;11.10;99.90
41904;DHT22;27586;51.124;4.182;2023-03-18T06:50:50;11.30;99.90
41904;DHT22;27586;51.124;4.182;2023-03-18T06:53:16;11.50;99.90
41904;DHT22;27586;51.124;4.182;2023-03-18T06:55:42;11.70;99.90
41904;DHT22;27586;51.124;4.182;2023-03-18T06:58:09;11.90;99.90
41904;DHT22;27586;51.124;4.182;2023-03-18T07:00:35;12.00;99.90
41904;DHT22;27586;51.124;4.182;2023-03-18T07:03:01;12.10;99.90
41904;DHT22;27586;51.124;4.182;2023-03-18T07:05:27;12.30;99.90
41904;DHT22;27586;51.124;4.182;2023-03-18T07:07:54;12.40;99.90
41904;DHT22;27586;51.124;4.182;2023-03-18T07:10:26;12.40;99.90
41904;DHT22;27586;51.124;4.182;2023-03-18T07:12:52;12.50;99.90
41904;DHT22;27586;51.124;4.182;2023-03-18T07:15:20;12.40;99.90
41904;DHT22;27586;51.124;4.182;2023-03-18T07:17:46;12.40;99.90
41904;DHT22;27586;51.124;4.182;2023-03-18T07:20:13;12.30;99.90
41904;DHT22;27586;51.124;4.182;2023-03-18T07:22:40;12.20;99.90
41904;DHT22;27586;51.124;4.182;2023-03-18T07:25:07;12.20;99.90
41904;DHT22;27586;51.124;4.182;2023-03-18T07:27:33;12.10;99.90
41904;DHT22;27586;51.124;4.182;2023-03-18T07:29:59;12.20;99.90
41904;DHT22;27586;51.124;4.182;2023-03-18T07:32:26;12.20;99.90
41904;DHT22;27586;51.124;4.182;2023-03-18T07:34:51;12.10;99.90
41904;DHT22;27586;51.124;4.182;2023-03-18T07:37:17;12.10;99.90
41904;DHT22;27586;51.124;4.182;2023-03-18T07:39:44;12.10;99.90
41904;DHT22;27586;51.124;4.182;2023-03-18T07:42:10;12.10;99.90
41904;DHT22;27586;51.124;4.182;2023-03-18T07:44:36;12.20;99.90
41904;DHT22;27586;51.124;4.182;2023-03-18T07:47:03;12.20;99.90
41904;DHT22;27586;51.124;4.182;2023-03-18T07:49:29;12.20;99.90
41904;DHT22;27586;51.124;4.182;2023-03-18T07:51:55;12.30;99.90
41904;DHT22;27586;51.124;4.182;2023-03-18T07:54:21;12.40;99.90
41904;DHT22;27586;51.124;4.182;2023-03-18T07:56:48;12.50;99.90
41904;DHT22;27586;51.124;4.182;2023-03-18T07:59:17;12.60;99.90
41904;DHT22;27586;51.124;4.182;2023-03-18T08:01:43;12.70;99.90
41904;DHT22;27586;51.124;4.182;2023-03-18T08:04:09;12.90;99.90
41904;DHT22;27586;51.124;4.182;2023-03-18T08:06:35;13.20;99.90
41904;DHT22;27586;51.124;4.182;2023-03-18T08:09:02;13.50;99.90
41904;DHT22;27586;51.124;4.182;2023-03-18T08:11:28;13.80;99.90
41904;DHT22;27586;51.124;4.182;2023-03-18T08:13:54;14.20;99.90
41904;DHT22;27586;51.124;4.182;2023-03-18T08:16:20;14.40;99.90
41904;DHT22;27586;51.124;4.182;2023-03-18T08:18:46;14.50;99.90
41904;DHT22;27586;51.124;4.182;2023-03-18T08:21:12;14.50;99.90
41904;DHT22;27586;51.124;4.182;2023-03-18T08:23:38;14.40;99.90
41904;DHT22;27586;51.124;4.182;2023-03-18T08:26:03;14.30;99.90
41904;DHT22;27586;51.124;4.182;2023-03-18T08:28:29;14.40;99.90
41904;DHT22;27586;51.124;4.182;2023-03-18T08:30:56;14.50;99.90
41904;DHT22;27586;51.124;4.182;2023-03-18T08:33:23;14.70;99.90
41904;DHT22;27586;51.124;4.182;2023-03-18T08:35:49;14.90;99.90
41904;DHT22;27586;51.124;4.182;2023-03-18T08:38:16;15.00;99.90
41904;DHT22;27586;51.124;4.182;2023-03-18T08:40:42;15.20;99.90
41904;DHT22;27586;51.124;4.182;2023-03-18T08:43:08;15.20;99.90
41904;DHT22;27586;51.124;4.182;2023-03-18T08:45:37;15.20;99.90
41904;DHT22;27586;51.124;4.182;2023-03-18T08:48:03;15.10;99.90
41904;DHT22;27586;51.124;4.182;2023-03-18T08:50:29;15.00;99.90
41904;DHT22;27586;51.124;4.182;2023-03-18T08:52:55;15.10;99.90
41904;DHT22;27586;51.124;4.182;2023-03-18T08:55:27;15.10;99.90
41904;DHT22;27586;51.124;4.182;2023-03-18T08:57:54;15.10;99.90
41904;DHT22;27586;51.124;4.182;2023-03-18T09:00:20;15.00;99.90
41904;DHT22;27586;51.124;4.182;2023-03-18T09:02:46;14.90;99.90
41904;DHT22;27586;51.124;4.182;2023-03-18T09:05:12;14.90;99.90
41904;DHT22;27586;51.124;4.182;2023-03-18T09:07:38;14.90;99.90
41904;DHT22;27586;51.124;4.182;2023-03-18T09:10:04;15.00;99.90
41904;DHT22;27586;51.124;4.182;2023-03-18T09:12:30;15.00;99.90
41904;DHT22;27586;51.124;4.182;2023-03-18T09:14:56;15.10;99.90
41904;DHT22;27586;51.124;4.182;2023-03-18T09:17:22;15.10;99.90
41904;DHT22;27586;51.124;4.182;2023-03-18T09:19:47;15.10;99.90
41904;DHT22;27586;51.124;4.182;2023-03-18T09:22:13;15.00;99.90
41904;DHT22;27586;51.124;4.182;2023-03-18T09:24:39;15.00;99.90
41904;DHT22;27586;51.124;4.182;2023-03-18T09:27:05;14.80;99.90
41904;DHT22;27586;51.124;4.182;2023-03-18T09:29:31;14.70;99.90
41904;DHT22;27586;51.124;4.182;2023-03-18T09:31:57;14.60;99.90
41904;DHT22;27586;51.124;4.182;2023-03-18T09:34:23;14.40;99.90
41904;DHT22;27586;51.124;4.182;2023-03-18T09:36:49;14.30;99.90
41904;DHT22;27586;51.124;4.182;2023-03-18T09:39:19;14.20;99.90
41904;DHT22;27586;51.124;4.182;2023-03-18T09:42:16;14.20;99.90
41904;DHT22;27586;51.124;4.182;2023-03-18T09:44:51;14.10;99.90
41904;DHT22;27586;51.124;4.182;2023-03-18T09:47:46;14.10;99.90
41904;DHT22;27586;51.124;4.182;2023-03-18T09:55:45;14.20;99.90
41904;DHT22;27586;51.124;4.182;2023-03-18T09:58:30;14.20;99.90
41904;DHT22;27586;51.124;4.182;2023-03-18T10:01:02;14.30;99.90
41904;DHT22;27586;51.124;4.182;2023-03-18T10:06:18;14.60;99.90
41904;DHT22;27586;51.124;4.182;2023-03-18T10:11:21;14.70;99.90
41904;DHT22;27586;51.124;4.182;2023-03-18T10:17:10;14.70;99.90
41904;DHT22;27586;51.124;4.182;2023-03-18T10:19:52;14.70;99.90
41904;DHT22;27586;51.124;4.182;2023-03-18T10:25:24;14.50;99.90
41904;DHT22;27586;51.124;4.182;2023-03-18T10:33:51;14.50;99.90
41904;DHT22;27586;51.124;4.182;2023-03-18T10:36:39;14.60;99.90
41904;DHT22;27586;51.124;4.182;2023-03-18T10:39:12;14.60;99.90
41904;DHT22;27586;51.124;4.182;2023-03-18T10:41:39;14.60;99.90
41904;DHT22;27586;51.124;4.182;2023-03-18T10:44:35;14.60;99.90
41904;DHT22;27586;51.124;4.182;2023-03-18T10:49:37;14.90;99.90
41904;DHT22;27586;51.124;4.182;2023-03-18T10:52:26;15.10;99.90
41904;DHT22;27586;51.124;4.182;2023-03-18T10:54:55;15.20;99.90
41904;DHT22;27586;51.124;4.182;2023-03-18T10:57:21;15.30;99.90
41904;DHT22;27586;51.124;4.182;2023-03-18T10:59:50;15.40;99.90
41904;DHT22;27586;51.124;4.182;2023-03-18T11:02:17;15.40;99.90
41904;DHT22;27586;51.124;4.182;2023-03-18T11:05:49;15.50;99.90
41904;DHT22;27586;51.124;4.182;2023-03-18T11:08:00;15.70;99.90
41904;DHT22;27586;51.124;4.182;2023-03-18T11:10:36;15.60;99.90
41904;DHT22;27586;51.124;4.182;2023-03-18T11:13:04;15.70;99.90
41904;DHT22;27586;51.124;4.182;2023-03-18T11:15:44;15.70;99.90
41904;DHT22;27586;51.124;4.182;2023-03-18T11:18:15;15.70;99.90
41904;DHT22;27586;51.124;4.182;2023-03-18T11:20:43;15.90;99.90
41904;DHT22;27586;51.124;4.182;2023-03-18T11:23:18;16.00;99.90
41904;DHT22;27586;51.124;4.182;2023-03-18T11:26:01;16.20;99.90
41904;DHT22;27586;51.124;4.182;2023-03-18T11:28:28;16.40;99.90
41904;DHT22;27586;51.124;4.182;2023-03-18T11:30:56;16.60;99.90
41904;DHT22;27586;51.124;4.182;2023-03-18T11:33:30;16.80;99.90
41904;DHT22;27586;51.124;4.182;2023-03-18T11:36:05;16.90;99.90
41904;DHT22;27586;51.124;4.182;2023-03-18T11:38:33;16.80;99.90
41904;DHT22;27586;51.124;4.182;2023-03-18T11:43:57;17.20;99.90
41904;DHT22;27586;51.124;4.182;2023-03-18T11:46:38;17.40;99.90
41904;DHT22;27586;51.124;4.182;2023-03-18T11:49:05;17.60;99.90
41904;DHT22;27586;51.124;4.182;2023-03-18T11:56:59;17.50;99.90
41904;DHT22;27586;51.124;4.182;2023-03-18T12:08:01;17.50;99.90
41904;DHT22;27586;51.124;4.182;2023-03-18T12:10:35;17.30;99.90
41904;DHT22;27586;51.124;4.182;2023-03-18T12:21:36;17.60;99.90
41904;DHT22;27586;51.124;4.182;2023-03-18T12:24:33;17.80;99.90
41904;DHT22;27586;51.124;4.182;2023-03-18T12:32:41;18.10;99.90
41904;DHT22;27586;51.124;4.182;2023-03-18T12:43:58;18.40;99.90
41904;DHT22;27586;51.124;4.182;2023-03-18T12:46:52;18.40;99.90
41904;DHT22;27586;51.124;4.182;2023-03-18T12:49:40;18.40;99.90
41904;DHT22;27586;51.124;4.182;2023-03-18T12:52:46;18.40;99.90
41904;DHT22;27586;51.124;4.182;2023-03-18T12:55:18;18.30;99.90
41904;DHT22;27586;51.124;4.182;2023-03-18T12:58:00;18.30;99.90
41904;DHT22;27586;51.124;4.182;2023-03-18T13:03:34;18.20;99.90
41904;DHT22;27586;51.124;4.182;2023-03-18T13:14:23;18.30;99.90
41904;DHT22;27586;51.124;4.182;2023-03-18T13:16:51;18.30;99.90
41904;DHT22;27586;51.124;4.182;2023-03-18T13:19:18;18.30;99.90
41904;DHT22;27586;51.124;4.182;2023-03-18T13:21:48;18.20;99.90
41904;DHT22;27586;51.124;4.182;2023-03-18T13:24:28;18.40;99.90
41904;DHT22;27586;51.124;4.182;2023-03-18T13:38:12;18.80;99.90
41904;DHT22;27586;51.124;4.182;2023-03-18T13:43:32;18.70;99.90
41904;DHT22;27586;51.124;4.182;2023-03-18T13:46:00;18.60;99.90
41904;DHT22;27586;51.124;4.182;2023-03-18T13:48:34;18.60;99.90
41904;DHT22;27586;51.124;4.182;2023-03-18T13:51:18;18.50;99.90
41904;DHT22;27586;51.124;4.182;2023-03-18T13:53:46;18.30;99.90
41904;DHT22;27586;51.124;4.182;2023-03-18T13:56:31;18.40;99.90
41904;DHT22;27586;51.124;4.182;2023-03-18T13:59:01;18.30;99.90
41904;DHT22;27586;51.124;4.182;2023-03-18T14:01:34;18.30;99.90
41904;DHT22;27586;51.124;4.182;2023-03-18T14:07:17;18.30;99.90
41904;DHT22;27586;51.124;4.182;2023-03-18T14:09:53;18.40;99.90
41904;DHT22;27586;51.124;4.182;2023-03-18T14:12:38;18.40;99.90
41904;DHT22;27586;51.124;4.182;2023-03-18T14:15:35;18.40;99.90
41904;DHT22;27586;51.124;4.182;2023-03-18T14:18:01;18.20;99.90
41904;DHT22;27586;51.124;4.182;2023-03-18T14:25:49;17.70;99.90
41904;DHT22;27586;51.124;4.182;2023-03-18T14:28:24;17.60;99.90
41904;DHT22;27586;51.124;4.182;2023-03-18T14:31:12;17.60;99.90
41904;DHT22;27586;51.124;4.182;2023-03-18T14:34:02;17.60;99.90
41904;DHT22;27586;51.124;4.182;2023-03-18T14:39:30;17.60;99.90
41904;DHT22;27586;51.124;4.182;2023-03-18T14:41:59;17.50;99.90
41904;DHT22;27586;51.124;4.182;2023-03-18T14:44:46;17.50;99.90
41904;DHT22;27586;51.124;4.182;2023-03-18T14:47:19;17.50;99.90
41904;DHT22;27586;51.124;4.182;2023-03-18T14:50:01;17.40;99.90
41904;DHT22;27586;51.124;4.182;2023-03-18T14:52:35;17.30;99.90
41904;DHT22;27586;51.124;4.182;2023-03-18T14:55:13;17.30;99.90
41904;DHT22;27586;51.124;4.182;2023-03-18T14:57:41;17.30;99.90
41904;DHT22;27586;51.124;4.182;2023-03-18T15:00:14;17.20;99.90
41904;DHT22;27586;51.124;4.182;2023-03-18T15:02:40;17.10;99.90
41904;DHT22;27586;51.124;4.182;2023-03-18T15:05:06;17.10;99.90
41904;DHT22;27586;51.124;4.182;2023-03-18T15:07:37;17.20;99.90
41904;DHT22;27586;51.124;4.182;2023-03-18T15:10:28;17.20;99.90
41904;DHT22;27586;51.124;4.182;2023-03-18T15:13:04;17.20;99.90
41904;DHT22;27586;51.124;4.182;2023-03-18T15:15:34;17.10;99.90
41904;DHT22;27586;51.124;4.182;2023-03-18T15:21:01;17.00;99.90
41904;DHT22;27586;51.124;4.182;2023-03-18T15:23:33;17.00;99.90
41904;DHT22;27586;51.124;4.182;2023-03-18T15:26:02;16.90;99.90
41904;DHT22;27586;51.124;4.182;2023-03-18T15:28:32;17.00;99.90
41904;DHT22;27586;51.124;4.182;2023-03-18T15:30:59;16.90;99.90
41904;DHT22;27586;51.124;4.182;2023-03-18T15:33:34;16.90;99.90
41904;DHT22;27586;51.124;4.182;2023-03-18T15:36:05;16.90;99.90
41904;DHT22;27586;51.124;4.182;2023-03-18T15:38:31;16.80;99.90
41904;DHT22;27586;51.124;4.182;2023-03-18T15:41:17;16.90;99.90
41904;DHT22;27586;51.124;4.182;2023-03-18T15:43:50;17.00;99.90
41904;DHT22;27586;51.124;4.182;2023-03-18T15:46:30;16.90;99.90
41904;DHT22;27586;51.124;4.182;2023-03-18T15:48:59;16.90;99.90
41904;DHT22;27586;51.124;4.182;2023-03-18T15:51:29;16.90;99.90
41904;DHT22;27586;51.124;4.182;2023-03-18T15:54:15;17.00;99.90
41904;DHT22;27586;51.124;4.182;2023-03-18T15:56:44;16.90;99.90
41904;DHT22;27586;51.124;4.182;2023-03-18T15:59:18;16.90;99.90
41904;DHT22;27586;51.124;4.182;2023-03-18T16:01:44;16.90;99.90
41904;DHT22;27586;51.124;4.182;2023-03-18T16:04:14;16.90;99.90
41904;DHT22;27586;51.124;4.182;2023-03-18T16:06:41;16.90;99.90
41904;DHT22;27586;51.124;4.182;2023-03-18T16:09:35;16.80;99.90
41904;DHT22;27586;51.124;4.182;2023-03-18T16:12:15;16.70;99.90
41904;DHT22;27586;51.124;4.182;2023-03-18T16:14:45;16.60;99.90
41904;DHT22;27586;51.124;4.182;2023-03-18T16:17:13;16.60;99.90
41904;DHT22;27586;51.124;4.182;2023-03-18T16:19:41;16.60;99.90
41904;DHT22;27586;51.124;4.182;2023-03-18T16:22:08;16.50;99.90
41904;DHT22;27586;51.124;4.182;2023-03-18T16:24:35;16.40;99.90
41904;DHT22;27586;51.124;4.182;2023-03-18T16:27:03;16.40;99.90
41904;DHT22;27586;51.124;4.182;2023-03-18T16:29:32;16.40;99.90
41904;DHT22;27586;51.124;4.182;2023-03-18T16:31:59;16.30;99.90
41904;DHT22;27586;51.124;4.182;2023-03-18T16:34:25;16.30;99.90
41904;DHT22;27586;51.124;4.182;2023-03-18T16:36:51;16.30;99.90
41904;DHT22;27586;51.124;4.182;2023-03-18T16:39:21;16.20;99.90
41904;DHT22;27586;51.124;4.182;2023-03-18T16:41:49;16.10;99.90
41904;DHT22;27586;51.124;4.182;2023-03-18T16:44:17;16.20;99.90
41904;DHT22;27586;51.124;4.182;2023-03-18T16:46:48;16.20;99.90
41904;DHT22;27586;51.124;4.182;2023-03-18T16:49:32;16.10;99.90
41904;DHT22;27586;51.124;4.182;2023-03-18T16:51:58;16.00;99.90
41904;DHT22;27586;51.124;4.182;2023-03-18T16:54:31;15.80;99.90
41904;DHT22;27586;51.124;4.182;2023-03-18T16:56:59;15.50;99.90
41904;DHT22;27586;51.124;4.182;2023-03-18T16:59:32;15.40;99.90
41904;DHT22;27586;51.124;4.182;2023-03-18T17:02:00;15.30;99.90
41904;DHT22;27586;51.124;4.182;2023-03-18T17:04:30;15.20;99.90
41904;DHT22;27586;51.124;4.182;2023-03-18T17:06:58;15.10;99.90
41904;DHT22;27586;51.124;4.182;2023-03-18T17:09:25;15.00;99.90
41904;DHT22;27586;51.124;4.182;2023-03-18T17:11:57;14.90;99.90
41904;DHT22;27586;51.124;4.182;2023-03-18T17:14:39;14.80;99.90
41904;DHT22;27586;51.124;4.182;2023-03-18T17:17:10;14.80;99.90
41904;DHT22;27586;51.124;4.182;2023-03-18T17:19:39;14.70;99.90
41904;DHT22;27586;51.124;4.182;2023-03-18T17:22:22;14.70;99.90
41904;DHT22;27586;51.124;4.182;2023-03-18T17:24:48;14.60;99.90
41904;DHT22;27586;51.124;4.182;2023-03-18T17:27:25;14.40;99.90
41904;DHT22;27586;51.124;4.182;2023-03-18T17:29:53;14.20;99.90
41904;DHT22;27586;51.124;4.182;2023-03-18T17:32:18;14.10;99.90
41904;DHT22;27586;51.124;4.182;2023-03-18T17:34:49;14.20;99.90
41904;DHT22;27586;51.124;4.182;2023-03-18T17:37:15;14.10;99.90